Quinton, Virginia
Current Conditions -  °F | °C
As of 9:55 PM on Sunday 23 Nov 2014 (Local Time) from KW96 Reporting Station
Overcast Overcast  
Wind Chill: 55°   Ceiling: 2300
Heat Index: 55°   Visibility: 7mi
Dew Point: 54°   Wind: 8mph
Humidity: 97%   Direction: 110°ESE
Pressure: 29.9"   Gusts: NA
Location:  37.53°N, 77.12°W
Report Text: KW96 240255Z AUTO 11007KT 7SM BKN023 OVC033 13/12 A2990 RMK AO1 P0002 60002 T01250121
Loading
Personal Weather Stations






























Interactive Weather Map New forecast layout! Learn more

10-Day Weather Forecast

Advertisements
Track Severe Weather on mobile